Stuart, FL

5:41 PM EDT on April 26, 2015 (GMT -0400)
Witham | | Change Station
CLOSE
Current Station
Airport
Location: Stuart,
Elevation: 20 ft
Nearby Weather Stations

Elev 20 ft 27.18 °N, 80.22 °W | Updated 51 minutes ago

Scattered Clouds
Scattered Clouds
91 °F
Feels Like 94 °F
N
20
Wind Variable Wind from West
Gusts 30 mph

Today
High -- | Low -- °F
--% Chance of Precip.
Yesterday
High -- | Low -- °F
Precip. -- in
6:46 AM 7:51 PM
First Quarter, 59% visible
Pressure 29.76 in
Visibility 7.0 miles
Clouds Scattered Clouds 4000 ft
Heat Index 94 °F
Dew Point 66 °F
Humidity 43%
Rainfall 0.00 in
Snow Depth Not available.
UV 5 out of 12
Pollen 7.30 out of 12
Air Quality Not available.
Flu Activity Local Activity
METAR KSUA 262050Z 27017G26KT 7SM SCT040 33/19 A2976

More Conditions Fewer Conditions

Pressure 29.76 in
Visibility 7.0 miles
Clouds Scattered Clouds 4000 ft
Heat Index 94 °F
Dew Point 66 °F
Humidity 43%
Rainfall 0.00 in
Snow Depth Not available.
UV 5 out of 12
Pollen 7.30 out of 12
Air Quality Not available.
Flu Activity Local Activity
METAR KSUA 262050Z 27017G26KT 7SM SCT040 33/19 A2976

More Conditions Fewer Conditions

The full scope of the disaster following a powerful 7.8-magnitude earthquake in Nepal may not come into view for days, but global charities are already sending emergency aid. Click to see how you can help.
Nowcast | as of 5:19 PM EDT on April 26, 2015

Scattered showers and a few lightning storms will move east at 40 mph across Volusia County from near Orange City to New Smyrna Beach and out into the Atlantic. Brief heavy downpours...gusty winds to 35 to 40 mph and occasional cloud to ground lightning strikes will accompany this activity. Hot conditions will persist from Metro Orlando and Titusville south to Lake Okeechobee and the Treasure Coast with early evening temperatures in the upper 80s to the lower 90s. Additional details...including graphics are available online at: http://www.Srh.NOAA.Gov/mlb/blog.Php

×

10-Day Weather Forecast

Almanac

Astronomy

Apr. 26, 2015 Rise Set
Actual Time
Civil Twilight
Nautical Twilight
Astronomical Twilight
Moon
Length of Visible Light
Length of Day
Tomorrow will be .
, % of the Moon is Illuminated

Today's Extremes

State Highs State Lows

Community

WunderPhotos

Upload Photos

1,817,132 photos uploaded!

WunderBlogs® & News

Nearby

Air Quality

  Air Quality AQ Index Pollutant
Not available.

Snow Depth

Station Depth Elevation

Earthquake Activity

City Distance Mag. Time & Date
Minimum magnitude displayed is 2.5.

Coastal Water Temperatures

Place Temperature

Stations

Nearby Weather Stations

Station Location Temp. Windchill Dew Point Humidity Wind Precip. Elev Updated Type